e-Mail: Password: Lost your password? Click here. - Register a new user

c h a v e z j u a r e z . c o m

Weather - Tiempo - Wetter - Temps

METAR DATA MMMX (Mexico City)

Mexico City / Licenci, Mexico (MMMX) 19-26N 099-06W
Aug 09, 2020 - 08:45 AM EDT / 2020.08.09 1245 UTC
Wind: Calm:0
Visibility: 8 mile(s):0
Sky conditions: mostly cloudy
Temperature: 57 F (14 C)
Dew Point: 53 F (12 C)
Relative Humidity: 87%
Pressure (altimeter): 30.4 in. Hg (1029 hPa)
ob: MMMX 091245Z 00000KT 8SM FEW015 BKN080 BKN200 14/12 A3040 NOSIG RMK 8/538 HZY LWR SC
cycle: 13

Mexico City

St. Prex




Current weather alarms for Switzerland


www.wetteralarm.ch